createdAt,value
2022-09-30T00:00:03.799Z,19.4
2022-09-30T00:04:55.856Z,19.38
2022-09-30T00:09:48.145Z,19.38
2022-09-30T00:14:40.972Z,19.37
2022-09-30T00:19:33.254Z,19.36
2022-09-30T00:24:25.631Z,19.33
2022-09-30T00:29:18.260Z,19.33
2022-09-30T00:34:10.716Z,19.33
2022-09-30T00:38:59.980Z,19.32
2022-09-30T00:43:53.540Z,19.31
2022-09-30T00:48:45.869Z,19.3
2022-09-30T00:53:38.287Z,19.29
2022-09-30T00:58:30.711Z,19.26
2022-09-30T01:03:23.242Z,19.28
2022-09-30T01:08:15.414Z,19.23
2022-09-30T01:13:07.937Z,19.24
2022-09-30T01:18:00.528Z,19.23
2022-09-30T01:22:53.019Z,19.23
2022-09-30T01:27:45.383Z,19.2
2022-09-30T01:32:37.861Z,19.19
2022-09-30T01:37:30.341Z,19.19
2022-09-30T01:42:22.696Z,19.2
2022-09-30T01:47:15.342Z,19.2
2022-09-30T01:52:07.733Z,19.18
2022-09-30T01:57:00.312Z,19.16
2022-09-30T02:01:52.837Z,19.14
2022-09-30T02:06:45.373Z,19.15
2022-09-30T02:11:37.782Z,19.11
2022-09-30T02:16:30.311Z,19.1
2022-09-30T02:21:22.746Z,19.12
2022-09-30T02:26:15.157Z,19.09
2022-09-30T02:31:07.691Z,19.12
2022-09-30T02:36:00.096Z,19.08
2022-09-30T02:40:52.659Z,19.08
2022-09-30T02:45:45.354Z,19.03
2022-09-30T02:50:37.763Z,19.02
2022-09-30T02:55:30.208Z,19.02
2022-09-30T03:00:22.821Z,19.03
2022-09-30T03:05:15.136Z,19.02
2022-09-30T03:10:07.414Z,19.02
2022-09-30T03:14:59.883Z,19.02
2022-09-30T03:19:52.321Z,19
2022-09-30T03:24:44.965Z,19
2022-09-30T03:29:37.502Z,18.98
2022-09-30T03:34:29.841Z,18.98
2022-09-30T03:39:22.255Z,18.96
2022-09-30T03:44:14.793Z,18.95
2022-09-30T03:53:59.937Z,18.94
2022-09-30T03:58:52.280Z,18.94
2022-09-30T04:03:45.021Z,18.94
2022-09-30T04:08:37.395Z,18.91
2022-09-30T04:13:29.842Z,18.92
2022-09-30T04:18:22.354Z,18.93
2022-09-30T04:23:14.886Z,18.86
2022-09-30T04:28:07.297Z,18.9
2022-09-30T04:32:59.836Z,18.89
2022-09-30T04:37:52.590Z,19.06
2022-09-30T04:42:45.134Z,19.13
2022-09-30T04:47:37.597Z,19.25
2022-09-30T04:52:30.181Z,19.3
2022-09-30T04:57:22.762Z,19.24
2022-09-30T05:02:15.236Z,19.32
2022-09-30T05:07:07.975Z,19.37
2022-09-30T05:12:00.732Z,19.42
2022-09-30T05:16:53.522Z,19.59
2022-09-30T05:21:46.403Z,19.77
2022-09-30T05:26:38.918Z,19.9
2022-09-30T05:31:31.329Z,20.23
2022-09-30T05:36:23.835Z,20.31
2022-09-30T05:41:16.537Z,20.38
2022-09-30T05:46:09.175Z,20.46
2022-09-30T05:51:01.850Z,20.47
2022-09-30T05:55:54.387Z,20.44
2022-09-30T06:00:47.270Z,20.46
2022-09-30T07:22:30.542Z,20.22
2022-09-30T07:27:25.024Z,20.54
2022-09-30T07:32:18.115Z,20.58
2022-09-30T07:37:10.596Z,20.5
2022-09-30T07:42:03.158Z,20.52
2022-09-30T07:46:55.722Z,20.57
2022-09-30T07:51:48.094Z,20.55
2022-09-30T07:56:51.506Z,20.58
2022-09-30T08:01:28.231Z,20.61
2022-09-30T08:06:21.643Z,20.58
2022-09-30T08:11:14.631Z,20.62
2022-09-30T08:16:07.565Z,20.73
2022-09-30T08:21:00.158Z,20.68
2022-09-30T08:25:52.628Z,20.73
2022-09-30T08:30:40.419Z,20.79
2022-09-30T08:35:32.776Z,20.78
2022-09-30T08:40:26.394Z,20.75
2022-09-30T08:45:18.927Z,20.81
2022-09-30T08:50:11.653Z,20.79
2022-09-30T08:55:04.346Z,20.84
2022-09-30T08:59:56.901Z,20.97
2022-09-30T09:04:49.706Z,21.13
2022-09-30T09:09:42.182Z,21.01
2022-09-30T09:14:34.637Z,21.05
2022-09-30T09:19:27.501Z,21.13
2022-09-30T09:24:19.950Z,21.17
